Time;durP1;ratioP1;P1;durP2;ratioP2;P2;SDS_P1;SDS_P2;PMS_P1;PMS_P2;Temp;Humidity;BMP_temperature;BMP_pressure;BME280_temperature;BME280_humidity;BME280_pressure;Samples;Min_cycle;Max_cycle;Signal;HPM_P1;HPM_P2
2022/03/23 00:00:52;;;;;;;28.15;17.33;;;;;;;;;;5112176;28;20041;-62
2022/03/23 00:03:17;;;;;;;24.73;16.73;;;;;;;;;;5113580;28;20043;-62
2022/03/23 00:05:43;;;;;;;25.60;17.45;;;;;;;;;;5111873;28;20028;-62
2022/03/23 00:08:08;;;;;;;28.02;19.23;;;;;;;;;;5107368;28;20464;-62
2022/03/23 00:10:34;;;;;;;27.88;18.45;;;;;;;;;;5110204;28;20039;-62
2022/03/23 00:13:00;;;;;;;25.90;17.73;;;;;;;;;;5098199;28;20031;-62
2022/03/23 00:15:25;;;;;;;24.55;17.60;;;;;;;;;;5092519;28;20439;-62
2022/03/23 00:17:51;;;;;;;31.88;17.90;;;;;;;;;;5108040;28;20452;-62
2022/03/23 00:20:16;;;;;;;29.83;18.00;;;;;;;;;;5103315;28;20395;-62
2022/03/23 00:22:41;;;;;;;29.08;18.00;;;;;;;;;;5113054;28;20050;-62
2022/03/23 00:25:08;;;;;;;24.55;16.77;;;;;;;;;;5111232;28;20027;-62
2022/03/23 00:27:33;;;;;;;24.98;17.33;;;;;;;;;;5104356;28;20031;-61
2022/03/23 00:29:59;;;;;;;24.90;16.77;;;;;;;;;;5103360;28;20580;-61
2022/03/23 00:32:24;;;;;;;25.95;16.27;;;;;;;;;;5110427;28;20030;-62
2022/03/23 00:34:49;;;;;;;24.52;17.63;;;;;;;;;;5112778;28;20402;-62
2022/03/23 00:37:14;;;;;;;22.27;15.77;;;;;;;;;;5109230;28;20387;-62
2022/03/23 00:39:39;;;;;;;24.40;17.35;;;;;;;;;;5094236;28;20396;-61
2022/03/23 00:42:05;;;;;;;22.85;16.60;;;;;;;;;;5091654;28;20388;-62
2022/03/23 00:44:30;;;;;;;23.75;16.63;;;;;;;;;;5110189;28;20058;-62
2022/03/23 00:46:55;;;;;;;23.60;17.35;;;;;;;;;;5101245;28;20024;-62
2022/03/23 00:49:20;;;;;;;23.48;16.90;;;;;;;;;;5095455;28;20019;-62
2022/03/23 00:51:46;;;;;;;22.42;15.93;;;;;;;;;;5111825;28;20066;-62
2022/03/23 00:54:11;;;;;;;22.13;16.45;;;;;;;;;;5112524;28;20023;-63
2022/03/23 00:56:37;;;;;;;23.08;15.73;;;;;;;;;;5105989;28;20066;-63
2022/03/23 00:59:03;;;;;;;22.63;16.48;;;;;;;;;;5106353;28;20138;-62
2022/03/23 01:01:29;;;;;;;23.60;16.52;;;;;;;;;;5106541;28;20027;-62
2022/03/23 01:03:54;;;;;;;21.55;17.38;;;;;;;;;;5111425;28;20016;-62
2022/03/23 01:06:19;;;;;;;22.20;16.20;;;;;;;;;;5112501;28;20411;-62
2022/03/23 01:08:44;;;;;;;23.43;16.23;;;;;;;;;;5109210;28;21137;-62
2022/03/23 01:11:10;;;;;;;21.55;15.35;;;;;;;;;;5110549;28;20019;-61
2022/03/23 01:13:36;;;;;;;22.10;16.07;;;;;;;;;;5103500;28;20376;-63
2022/03/23 01:16:01;;;;;;;21.73;16.37;;;;;;;;;;5091891;28;20020;-62
2022/03/23 01:18:26;;;;;;;24.87;15.70;;;;;;;;;;5109946;28;20057;-63
2022/03/23 01:20:51;;;;;;;22.97;16.03;;;;;;;;;;5113147;28;20105;-62
2022/03/23 01:23:17;;;;;;;22.65;16.13;;;;;;;;;;5098767;28;20054;-63
2022/03/23 01:25:42;;;;;;;21.88;16.27;;;;;;;;;;5102479;28;20060;-62
2022/03/23 01:28:09;;;;;;;23.10;16.92;;;;;;;;;;5113830;27;20099;-62
2022/03/23 01:30:35;;;;;;;22.40;16.10;;;;;;;;;;5117015;27;20031;-62
2022/03/23 01:33:01;;;;;;;22.33;16.60;;;;;;;;;;5105169;27;20085;-61
2022/03/23 01:35:26;;;;;;;23.50;17.40;;;;;;;;;;5117338;28;20102;-62
2022/03/23 01:37:51;;;;;;;26.43;16.00;;;;;;;;;;5116731;28;20031;-62
2022/03/23 01:40:16;;;;;;;22.73;15.40;;;;;;;;;;5117775;28;20020;-62
2022/03/23 01:42:42;;;;;;;23.53;16.73;;;;;;;;;;5115701;28;20177;-63
2022/03/23 01:45:08;;;;;;;22.67;16.00;;;;;;;;;;5098084;28;20435;-62
2022/03/23 01:47:34;;;;;;;24.03;17.00;;;;;;;;;;5100768;28;20023;-62
2022/03/23 01:49:59;;;;;;;23.03;16.80;;;;;;;;;;5097108;28;20024;-62
2022/03/23 01:52:25;;;;;;;23.23;15.77;;;;;;;;;;5103890;28;20024;-61
2022/03/23 01:54:50;;;;;;;24.93;15.90;;;;;;;;;;5116123;27;20027;-63
2022/03/23 01:57:16;;;;;;;23.10;16.33;;;;;;;;;;5116175;27;20120;-61
2022/03/23 01:59:42;;;;;;;20.47;14.83;;;;;;;;;;5106405;27;20532;-61
2022/03/23 02:02:10;;;;;;;21.53;15.10;;;;;;;;;;5117240;27;20030;-61
2022/03/23 02:04:36;;;;;;;23.67;15.53;;;;;;;;;;5111620;28;20395;-61
2022/03/23 02:07:03;;;;;;;24.53;15.57;;;;;;;;;;5116641;28;20053;-62
2022/03/23 02:09:28;;;;;;;21.27;15.30;;;;;;;;;;5110151;27;20122;-62
2022/03/23 02:11:54;;;;;;;25.27;15.43;;;;;;;;;;5108810;28;20119;-62
2022/03/23 02:14:19;;;;;;;21.83;15.67;;;;;;;;;;5104058;27;20023;-62
2022/03/23 02:16:49;;;;;;;19.70;15.53;;;;;;;;;;5098399;28;20028;-62
2022/03/23 02:19:15;;;;;;;20.77;14.30;;;;;;;;;;5111720;28;20031;-61
2022/03/23 02:21:44;;;;;;;20.77;13.90;;;;;;;;;;5118464;28;20487;-62
2022/03/23 02:24:09;;;;;;;20.43;14.10;;;;;;;;;;5114667;27;20032;-62
2022/03/23 02:26:37;;;;;;;21.17;14.10;;;;;;;;;;5114767;28;20019;-63
2022/03/23 02:29:02;;;;;;;17.43;13.83;;;;;;;;;;5103450;27;20494;-62
2022/03/23 02:31:27;;;;;;;20.93;13.17;;;;;;;;;;5098037;28;20111;-62
2022/03/23 02:33:53;;;;;;;19.07;15.03;;;;;;;;;;5109768;28;20028;-62
2022/03/23 02:36:18;;;;;;;19.83;13.57;;;;;;;;;;5114416;28;20080;-61
2022/03/23 02:38:43;;;;;;;21.23;14.07;;;;;;;;;;5113314;28;20560;-61
2022/03/23 02:41:09;;;;;;;19.77;13.57;;;;;;;;;;5105979;28;20278;-61
2022/03/23 02:43:34;;;;;;;22.63;14.23;;;;;;;;;;5106417;28;20520;-61
2022/03/23 02:45:59;;;;;;;21.03;13.97;;;;;;;;;;5098892;28;20036;-61
2022/03/23 02:48:25;;;;;;;21.17;13.73;;;;;;;;;;5094568;28;20032;-62
2022/03/23 02:50:50;;;;;;;20.53;14.30;;;;;;;;;;5094328;28;20043;-62
2022/03/23 03:01:54;;;;;;;20.57;13.73;;;;;;;;;;5103438;28;20285;-61
2022/03/23 03:04:20;;;;;;;22.23;15.27;;;;;;;;;;5114557;28;20544;-61
2022/03/23 03:06:46;;;;;;;21.37;14.10;;;;;;;;;;5100973;28;20111;-61
2022/03/23 03:09:11;;;;;;;20.47;14.77;;;;;;;;;;5094167;28;20277;-61
2022/03/23 03:11:36;;;;;;;20.30;15.33;;;;;;;;;;5094770;28;20035;-61
2022/03/23 03:14:02;;;;;;;24.17;14.93;;;;;;;;;;5107783;28;20024;-62
2022/03/23 03:16:27;;;;;;;21.90;14.50;;;;;;;;;;5106928;28;20020;-62
2022/03/23 03:18:52;;;;;;;20.43;13.57;;;;;;;;;;5113652;28;20080;-61
2022/03/23 03:21:18;;;;;;;17.27;12.10;;;;;;;;;;5114432;27;20024;-62
2022/03/23 03:23:44;;;;;;;16.20;12.30;;;;;;;;;;5111548;28;20437;-62
2022/03/23 03:26:09;;;;;;;17.87;12.63;;;;;;;;;;5109534;28;20038;-61
2022/03/23 03:28:36;;;;;;;18.83;12.07;;;;;;;;;;5103599;28;20031;-61
2022/03/23 03:31:02;;;;;;;18.40;12.63;;;;;;;;;;5112962;28;20140;-61
2022/03/23 03:33:27;;;;;;;16.40;12.37;;;;;;;;;;5112189;28;20039;-61
2022/03/23 03:35:52;;;;;;;17.37;11.90;;;;;;;;;;5113137;28;20031;-61
2022/03/23 03:38:18;;;;;;;15.57;11.83;;;;;;;;;;5104247;28;20052;-61
2022/03/23 03:40:44;;;;;;;27.23;21.47;;;;;;;;;;5108351;28;20122;-61
2022/03/23 03:43:10;;;;;;;19.50;14.83;;;;;;;;;;5113527;28;20035;-61
2022/03/23 03:45:35;;;;;;;20.07;13.50;;;;;;;;;;5099458;28;20032;-62
2022/03/23 03:48:00;;;;;;;17.47;12.23;;;;;;;;;;5109810;28;20051;-61
2022/03/23 03:50:25;;;;;;;17.30;11.23;;;;;;;;;;5096323;28;20023;-62
2022/03/23 03:52:50;;;;;;;17.27;11.60;;;;;;;;;;5110731;28;20122;-62
2022/03/23 03:55:16;;;;;;;16.17;11.33;;;;;;;;;;5108983;28;20487;-62
2022/03/23 03:57:41;;;;;;;19.47;12.50;;;;;;;;;;5112687;28;20169;-62
2022/03/23 04:00:07;;;;;;;15.37;12.23;;;;;;;;;;5100061;28;20030;-62
2022/03/23 04:02:32;;;;;;;15.83;11.70;;;;;;;;;;5114031;28;20614;-62
2022/03/23 04:04:57;;;;;;;18.77;12.50;;;;;;;;;;5111336;28;20509;-62
2022/03/23 04:07:22;;;;;;;17.73;12.10;;;;;;;;;;5104061;28;20039;-62
2022/03/23 04:09:47;;;;;;;14.90;11.33;;;;;;;;;;5097412;28;20028;-61
2022/03/23 04:12:12;;;;;;;17.40;11.77;;;;;;;;;;5113653;28;20028;-61
2022/03/23 04:14:38;;;;;;;17.03;11.33;;;;;;;;;;5097441;28;20034;-62
2022/03/23 04:17:03;;;;;;;17.97;10.63;;;;;;;;;;5112892;28;20069;-61
2022/03/23 04:19:28;;;;;;;18.80;11.87;;;;;;;;;;5106520;28;20364;-62
2022/03/23 04:21:54;;;;;;;16.77;11.93;;;;;;;;;;5093073;28;20460;-62
2022/03/23 04:24:20;;;;;;;18.50;11.80;;;;;;;;;;5105458;28;20084;-62
2022/03/23 04:26:45;;;;;;;17.03;12.07;;;;;;;;;;5108593;28;20429;-62
2022/03/23 04:29:10;;;;;;;18.70;12.37;;;;;;;;;;5110544;28;20039;-63
2022/03/23 04:31:36;;;;;;;20.83;13.13;;;;;;;;;;5102260;28;20035;-62
2022/03/23 04:34:01;;;;;;;17.80;12.50;;;;;;;;;;5094202;28;20057;-62
2022/03/23 04:36:26;;;;;;;19.90;12.63;;;;;;;;;;5092919;28;20392;-62
2022/03/23 04:38:51;;;;;;;18.13;12.33;;;;;;;;;;5103203;28;20020;-62
2022/03/23 04:41:16;;;;;;;19.43;13.20;;;;;;;;;;5103937;28;20114;-62
2022/03/23 04:43:42;;;;;;;12.60;8.93;;;;;;;;;;5106416;28;20015;-62
2022/03/23 04:46:07;;;;;;;11.60;8.03;;;;;;;;;;5112500;28;20019;-62
2022/03/23 04:48:33;;;;;;;13.80;8.57;;;;;;;;;;5103396;28;20469;-61
2022/03/23 04:50:58;;;;;;;13.67;10.23;;;;;;;;;;5100579;28;20047;-62
2022/03/23 04:53:23;;;;;;;11.20;7.53;;;;;;;;;;5092116;28;20023;-62
2022/03/23 04:55:49;;;;;;;13.70;8.37;;;;;;;;;;5096761;28;20246;-62
2022/03/23 04:58:14;;;;;;;14.83;8.37;;;;;;;;;;5103844;28;20143;-62
2022/03/23 05:00:40;;;;;;;12.90;8.53;;;;;;;;;;5088949;28;20020;-62
2022/03/23 05:03:05;;;;;;;12.87;7.67;;;;;;;;;;5108921;28;20031;-61
2022/03/23 05:05:30;;;;;;;10.23;7.23;;;;;;;;;;5112056;28;20019;-62
2022/03/23 05:07:55;;;;;;;10.60;7.30;;;;;;;;;;5111924;28;20055;-62
2022/03/23 05:10:21;;;;;;;11.93;7.40;;;;;;;;;;5109669;28;20088;-62
2022/03/23 05:12:46;;;;;;;11.73;8.33;;;;;;;;;;5110547;28;20429;-62
2022/03/23 05:15:13;;;;;;;11.17;8.07;;;;;;;;;;5109408;28;20035;-62
2022/03/23 05:17:39;;;;;;;13.53;7.63;;;;;;;;;;5108259;28;20018;-61
2022/03/23 05:20:05;;;;;;;12.93;8.40;;;;;;;;;;5091534;28;20028;-62
2022/03/23 05:22:30;;;;;;;13.03;8.00;;;;;;;;;;5098904;28;20481;-61
2022/03/23 05:24:56;;;;;;;13.33;8.57;;;;;;;;;;5098484;28;20020;-62
2022/03/23 05:27:21;;;;;;;11.07;8.70;;;;;;;;;;5103246;28;20012;-62
2022/03/23 05:29:47;;;;;;;12.53;8.60;;;;;;;;;;5111678;28;20020;-62
2022/03/23 05:32:16;;;;;;;13.27;8.67;;;;;;;;;;5097507;28;20386;-62
2022/03/23 05:34:45;;;;;;;12.33;8.67;;;;;;;;;;5103132;28;20024;-63
2022/03/23 05:37:11;;;;;;;12.83;9.00;;;;;;;;;;5092010;28;20361;-62
2022/03/23 05:39:36;;;;;;;12.27;8.83;;;;;;;;;;5111965;28;20398;-62
2022/03/23 05:42:02;;;;;;;16.43;9.50;;;;;;;;;;5104069;28;20143;-62
2022/03/23 05:44:27;;;;;;;15.07;8.23;;;;;;;;;;5105382;28;20027;-62
2022/03/23 05:46:53;;;;;;;13.27;8.00;;;;;;;;;;5096148;28;20073;-62
2022/03/23 05:49:18;;;;;;;10.57;7.73;;;;;;;;;;5089892;28;20396;-61
2022/03/23 05:51:43;;;;;;;11.87;7.80;;;;;;;;;;5101960;28;20531;-63
2022/03/23 05:54:08;;;;;;;10.20;7.77;;;;;;;;;;5101586;28;20025;-63
2022/03/23 05:56:33;;;;;;;12.37;7.80;;;;;;;;;;5103028;28;20051;-62
2022/03/23 05:58:58;;;;;;;12.53;7.83;;;;;;;;;;5109892;28;20037;-62
2022/03/23 06:01:24;;;;;;;11.57;8.00;;;;;;;;;;5108756;28;20034;-62
2022/03/23 06:03:49;;;;;;;9.03;7.10;;;;;;;;;;5106915;28;20084;-61
2022/03/23 06:06:15;;;;;;;11.43;7.40;;;;;;;;;;5100997;28;20031;-62
2022/03/23 06:08:40;;;;;;;10.30;6.30;;;;;;;;;;5106793;28;20039;-62
2022/03/23 06:11:05;;;;;;;8.63;6.03;;;;;;;;;;5106503;28;20248;-62
2022/03/23 06:13:30;;;;;;;6.77;5.37;;;;;;;;;;5111383;28;20027;-62
2022/03/23 06:15:56;;;;;;;10.10;6.60;;;;;;;;;;5096856;28;20120;-62
2022/03/23 06:18:21;;;;;;;9.53;5.97;;;;;;;;;;5095687;28;20023;-62
2022/03/23 06:20:46;;;;;;;8.97;5.70;;;;;;;;;;5106174;28;20122;-62
2022/03/23 06:23:13;;;;;;;7.57;5.97;;;;;;;;;;5113788;28;20148;-63
2022/03/23 06:25:38;;;;;;;10.37;6.20;;;;;;;;;;5108837;28;21436;-63
2022/03/23 06:28:03;;;;;;;10.10;6.20;;;;;;;;;;5108817;28;20426;-62
2022/03/23 06:30:28;;;;;;;10.73;6.73;;;;;;;;;;5103792;28;20141;-62
2022/03/23 06:32:54;;;;;;;8.63;6.00;;;;;;;;;;5112496;28;20114;-63
2022/03/23 06:35:19;;;;;;;9.77;6.10;;;;;;;;;;5113373;28;20012;-62
2022/03/23 06:37:44;;;;;;;9.90;6.17;;;;;;;;;;5103190;28;20053;-61
2022/03/23 06:40:10;;;;;;;10.20;5.90;;;;;;;;;;5111635;28;20012;-63
2022/03/23 06:42:35;;;;;;;6.53;5.73;;;;;;;;;;5114822;28;20016;-63
2022/03/23 06:45:02;;;;;;;7.77;5.87;;;;;;;;;;5112720;28;20531;-63
2022/03/23 06:47:27;;;;;;;9.80;6.13;;;;;;;;;;5111343;28;20019;-62
2022/03/23 06:49:53;;;;;;;12.17;6.03;;;;;;;;;;5114500;28;20019;-62
2022/03/23 06:52:18;;;;;;;7.97;6.33;;;;;;;;;;5108241;28;20031;-63
2022/03/23 06:54:43;;;;;;;11.37;6.27;;;;;;;;;;5098750;28;20077;-63
2022/03/23 06:57:08;;;;;;;9.13;6.00;;;;;;;;;;5102694;28;20347;-63
2022/03/23 06:59:34;;;;;;;9.20;6.53;;;;;;;;;;5099908;28;20015;-63
2022/03/23 07:01:59;;;;;;;12.05;6.82;;;;;;;;;;5114926;28;20127;-63
2022/03/23 07:04:27;;;;;;;10.90;6.17;;;;;;;;;;5114421;28;20038;-63
2022/03/23 07:06:52;;;;;;;11.70;5.60;;;;;;;;;;5113900;28;20039;-63
2022/03/23 07:09:32;;;;;;;11.23;6.47;;;;;;;;;;5096797;28;20392;-63
2022/03/23 07:12:02;;;;;;;11.55;6.10;;;;;;;;;;5101106;28;20013;-63
2022/03/23 07:14:28;;;;;;;13.88;5.10;;;;;;;;;;5109549;28;20150;-63
2022/03/23 07:16:53;;;;;;;11.73;5.57;;;;;;;;;;5105761;28;20880;-64
2022/03/23 07:19:18;;;;;;;7.53;5.68;;;;;;;;;;5114020;28;20268;-62
2022/03/23 07:21:43;;;;;;;10.95;5.32;;;;;;;;;;5114387;28;20015;-63
2022/03/23 07:24:10;;;;;;;14.25;5.50;;;;;;;;;;5114111;28;20377;-62
2022/03/23 07:26:35;;;;;;;10.98;5.20;;;;;;;;;;5109636;28;20119;-62
2022/03/23 07:29:01;;;;;;;9.93;5.85;;;;;;;;;;5112410;28;20059;-62
2022/03/23 07:31:26;;;;;;;11.50;5.90;;;;;;;;;;5112673;28;20114;-62
2022/03/23 07:33:51;;;;;;;8.50;5.30;;;;;;;;;;5107508;28;20350;-63
2022/03/23 07:36:17;;;;;;;9.85;5.30;;;;;;;;;;5109284;28;20023;-63
2022/03/23 07:38:42;;;;;;;8.60;4.68;;;;;;;;;;5103017;28;20134;-62
2022/03/23 07:41:07;;;;;;;7.45;5.07;;;;;;;;;;5112494;28;20501;-63
2022/03/23 07:43:32;;;;;;;10.77;4.78;;;;;;;;;;5106328;28;20571;-62
2022/03/23 07:45:58;;;;;;;9.77;4.85;;;;;;;;;;5110532;28;20038;-62
2022/03/23 07:48:24;;;;;;;6.35;4.38;;;;;;;;;;5113358;28;20030;-62
2022/03/23 07:50:49;;;;;;;10.07;5.43;;;;;;;;;;5096300;28;20036;-63
2022/03/23 07:53:14;;;;;;;9.90;5.60;;;;;;;;;;5093269;28;20484;-61
2022/03/23 07:55:40;;;;;;;9.07;5.47;;;;;;;;;;5095394;28;20016;-62
2022/03/23 07:58:05;;;;;;;8.75;5.13;;;;;;;;;;5107078;28;20075;-62
2022/03/23 08:00:31;;;;;;;6.70;4.70;;;;;;;;;;5096002;28;20073;-62
2022/03/23 08:02:56;;;;;;;9.20;5.18;;;;;;;;;;5103512;28;20035;-63
2022/03/23 08:05:21;;;;;;;10.70;5.18;;;;;;;;;;5100716;28;20364;-62
2022/03/23 08:07:46;;;;;;;8.25;5.05;;;;;;;;;;5110457;28;20023;-62
2022/03/23 08:10:12;;;;;;;8.50;5.13;;;;;;;;;;5099386;28;20039;-63
2022/03/23 08:12:37;;;;;;;9.35;5.40;;;;;;;;;;5098937;28;20095;-62
2022/03/23 08:15:03;;;;;;;9.23;5.85;;;;;;;;;;5099095;28;20031;-62
2022/03/23 08:17:28;;;;;;;7.55;5.15;;;;;;;;;;5106006;28;20062;-62
2022/03/23 08:22:37;;;;;;;9.48;5.15;;;;;;;;;;5104712;28;20118;-62
2022/03/23 08:25:02;;;;;;;7.45;5.35;;;;;;;;;;5082074;28;20059;-62
2022/03/23 08:27:28;;;;;;;7.90;4.88;;;;;;;;;;5106016;28;20063;-62
2022/03/23 08:29:53;;;;;;;7.88;5.22;;;;;;;;;;5101532;28;20036;-62
2022/03/23 08:32:18;;;;;;;9.50;5.38;;;;;;;;;;5104915;28;20066;-62
2022/03/23 08:34:43;;;;;;;7.13;4.65;;;;;;;;;;5108609;28;20024;-62
2022/03/23 08:37:09;;;;;;;6.97;5.25;;;;;;;;;;5111659;28;20038;-63
2022/03/23 08:39:34;;;;;;;5.03;4.50;;;;;;;;;;5111699;28;20011;-63
2022/03/23 08:41:59;;;;;;;21.02;5.80;;;;;;;;;;5111692;28;20035;-66
2022/03/23 08:44:24;;;;;;;9.93;6.22;;;;;;;;;;5095708;28;20106;-64
2022/03/23 08:46:50;;;;;;;11.68;5.20;;;;;;;;;;5098512;28;20379;-64
2022/03/23 08:49:15;;;;;;;10.70;4.85;;;;;;;;;;5110588;28;20481;-63
2022/03/23 08:51:40;;;;;;;6.10;4.82;;;;;;;;;;5111319;28;20024;-67
2022/03/23 08:54:05;;;;;;;8.27;5.20;;;;;;;;;;5110963;28;20492;-63
2022/03/23 08:56:31;;;;;;;7.55;5.35;;;;;;;;;;5098982;28;20048;-69
2022/03/23 08:58:56;;;;;;;8.13;6.18;;;;;;;;;;5101489;28;20046;-61
2022/03/23 09:01:21;;;;;;;9.40;5.82;;;;;;;;;;5097801;28;20017;-59
2022/03/23 09:03:47;;;;;;;15.02;6.88;;;;;;;;;;5101031;28;20015;-66
2022/03/23 09:06:12;;;;;;;15.07;7.43;;;;;;;;;;5110585;28;20024;-65
2022/03/23 09:08:37;;;;;;;12.27;7.32;;;;;;;;;;5111786;28;20030;-66
2022/03/23 09:11:03;;;;;;;8.68;7.03;;;;;;;;;;5100099;28;20039;-67
2022/03/23 09:13:28;;;;;;;9.40;6.90;;;;;;;;;;5109986;28;20047;-66
2022/03/23 09:15:54;;;;;;;9.32;6.68;;;;;;;;;;5100525;28;20020;-66
2022/03/23 09:18:19;;;;;;;11.68;7.20;;;;;;;;;;5090838;28;20473;-66
2022/03/23 09:20:45;;;;;;;10.68;6.07;;;;;;;;;;5091375;28;20464;-66
2022/03/23 09:23:10;;;;;;;9.27;6.68;;;;;;;;;;5105862;28;20031;-65
2022/03/23 09:25:36;;;;;;;9.05;6.55;;;;;;;;;;5098100;28;20034;-66
2022/03/23 09:28:03;;;;;;;8.52;6.45;;;;;;;;;;5103634;28;20430;-66
2022/03/23 09:30:28;;;;;;;8.85;7.55;;;;;;;;;;5109742;28;20566;-66
2022/03/23 09:32:53;;;;;;;9.98;7.07;;;;;;;;;;5104006;28;20107;-66
2022/03/23 09:35:19;;;;;;;9.73;7.28;;;;;;;;;;5102227;28;20036;-62
2022/03/23 09:37:50;;;;;;;10.65;7.75;;;;;;;;;;5110762;28;20020;-64
2022/03/23 09:40:24;;;;;;;11.57;8.90;;;;;;;;;;5112211;28;20094;-62
2022/03/23 09:42:49;;;;;;;10.45;7.45;;;;;;;;;;5101079;28;20422;-64
2022/03/23 09:45:22;;;;;;;9.30;8.00;;;;;;;;;;5114407;28;20019;-64
2022/03/23 09:47:47;;;;;;;8.63;7.82;;;;;;;;;;5103831;28;20028;-67
2022/03/23 09:50:13;;;;;;;9.38;8.10;;;;;;;;;;5095262;28;20035;-64
2022/03/23 09:52:38;;;;;;;8.65;7.75;;;;;;;;;;5095773;28;20541;-67
2022/03/23 09:55:04;;;;;;;9.45;8.00;;;;;;;;;;5095488;28;20505;-67
2022/03/23 09:57:29;;;;;;;9.93;8.18;;;;;;;;;;5099907;27;20054;-66
2022/03/23 09:59:54;;;;;;;11.65;8.00;;;;;;;;;;5113984;28;20027;-67
2022/03/23 10:02:44;;;;;;;11.90;9.50;;;;;;;;;;5115849;28;20011;-67
2022/03/23 10:05:15;;;;;;;10.18;8.57;;;;;;;;;;5114508;28;20024;-66
2022/03/23 10:07:52;;;;;;;10.30;8.13;;;;;;;;;;5106584;28;20102;-67
2022/03/23 10:10:23;;;;;;;9.52;8.50;;;;;;;;;;5115567;28;20028;-66
2022/03/23 10:13:11;;;;;;;9.98;8.60;;;;;;;;;;5115429;28;20038;-67
2022/03/23 10:16:14;;;;;;;11.77;8.65;;;;;;;;;;5114186;28;20035;-67
2022/03/23 10:18:39;;;;;;;12.07;8.63;;;;;;;;;;5095895;28;20483;-68
2022/03/23 10:21:05;;;;;;;10.13;8.95;;;;;;;;;;5099744;28;20024;-67
2022/03/23 10:23:31;;;;;;;9.23;8.20;;;;;;;;;;5115751;28;20314;-68
2022/03/23 10:25:57;;;;;;;10.15;8.25;;;;;;;;;;5109716;28;20417;-67
2022/03/23 10:28:22;;;;;;;9.55;8.65;;;;;;;;;;5109499;28;20095;-68
2022/03/23 10:30:48;;;;;;;9.95;8.52;;;;;;;;;;5108304;28;20102;-64
2022/03/23 10:33:20;;;;;;;10.98;8.25;;;;;;;;;;5113149;28;20639;-62
2022/03/23 10:35:46;;;;;;;10.48;8.68;;;;;;;;;;5104970;28;20031;-64
2022/03/23 10:38:15;;;;;;;9.63;8.52;;;;;;;;;;5096283;28;20106;-63
2022/03/23 10:40:41;;;;;;;9.70;8.32;;;;;;;;;;5113449;28;20015;-64
2022/03/23 10:43:07;;;;;;;10.27;9.20;;;;;;;;;;5113198;28;20192;-64
2022/03/23 10:45:32;;;;;;;10.65;8.98;;;;;;;;;;5114409;27;20055;-64
2022/03/23 10:48:07;;;;;;;10.20;9.20;;;;;;;;;;5104891;28;20028;-65
2022/03/23 10:50:33;;;;;;;10.88;9.13;;;;;;;;;;5100289;28;20769;-64
2022/03/23 10:53:02;;;;;;;9.30;8.40;;;;;;;;;;5093294;28;20054;-62
2022/03/23 10:55:37;;;;;;;10.43;9.35;;;;;;;;;;5093796;28;20042;-65
2022/03/23 10:58:03;;;;;;;10.35;9.40;;;;;;;;;;5112728;28;20319;-63
2022/03/23 11:00:30;;;;;;;10.00;8.60;;;;;;;;;;5111136;28;20448;-71
2022/03/23 11:02:56;;;;;;;14.07;9.65;;;;;;;;;;5114390;27;20249;-72
2022/03/23 11:05:35;;;;;;;10.80;9.70;;;;;;;;;;5112747;28;20120;-73
2022/03/23 11:08:09;;;;;;;10.52;9.52;;;;;;;;;;5112759;28;20077;-71
2022/03/23 11:16:07;;;;;;;10.73;9.15;;;;;;;;;;5114086;28;20031;-73
2022/03/23 11:18:32;;;;;;;10.48;9.48;;;;;;;;;;5111303;28;20016;-71
2022/03/23 11:20:58;;;;;;;11.02;8.68;;;;;;;;;;5108091;28;20080;-72
2022/03/23 11:23:26;;;;;;;10.48;9.48;;;;;;;;;;5113948;28;20467;-71
2022/03/23 11:25:53;;;;;;;10.65;9.55;;;;;;;;;;5107626;28;20031;-74
2022/03/23 11:28:18;;;;;;;9.88;8.90;;;;;;;;;;5112165;28;20019;-63
2022/03/23 11:30:45;;;;;;;9.80;8.80;;;;;;;;;;5110502;28;20452;-66
2022/03/23 11:33:11;;;;;;;12.75;9.45;;;;;;;;;;5114015;28;20064;-63
2022/03/23 11:35:37;;;;;;;11.10;9.98;;;;;;;;;;5113503;28;20026;-66
2022/03/23 11:38:04;;;;;;;10.82;9.82;;;;;;;;;;5113970;28;20047;-67
2022/03/23 11:40:30;;;;;;;10.43;9.40;;;;;;;;;;5112375;28;20114;-71
2022/03/23 11:42:55;;;;;;;12.27;9.63;;;;;;;;;;5109861;28;20102;-67
2022/03/23 11:45:20;;;;;;;10.80;9.73;;;;;;;;;;5110175;28;20015;-67
2022/03/23 11:47:55;;;;;;;10.10;9.10;;;;;;;;;;5093224;28;20024;-66
2022/03/23 11:50:42;;;;;;;9.48;8.77;;;;;;;;;;5092621;28;20262;-66
2022/03/23 11:53:10;;;;;;;10.77;9.85;;;;;;;;;;5109294;28;20020;-67
2022/03/23 11:55:37;;;;;;;10.27;9.23;;;;;;;;;;5106084;28;20029;-66
2022/03/23 11:58:10;;;;;;;11.38;9.77;;;;;;;;;;5099718;28;20430;-67
2022/03/23 12:00:39;;;;;;;9.70;8.80;;;;;;;;;;5105632;28;20020;-69
2022/03/23 12:03:05;;;;;;;9.57;8.85;;;;;;;;;;5100779;28;20051;-69
2022/03/23 12:05:32;;;;;;;10.47;9.53;;;;;;;;;;5112924;28;20075;-66
2022/03/23 12:07:57;;;;;;;9.00;8.40;;;;;;;;;;5113567;28;20281;-69
2022/03/23 12:10:31;;;;;;;9.65;8.70;;;;;;;;;;5110503;28;20044;-70
2022/03/23 12:12:57;;;;;;;9.10;8.25;;;;;;;;;;5108307;28;20016;-69
2022/03/23 12:15:23;;;;;;;9.98;9.07;;;;;;;;;;5094032;28;20027;-69
2022/03/23 12:18:07;;;;;;;9.27;8.65;;;;;;;;;;5101427;28;20035;-69
2022/03/23 12:20:33;;;;;;;10.55;9.65;;;;;;;;;;5112453;28;20068;-70
2022/03/23 12:23:02;;;;;;;10.02;9.10;;;;;;;;;;5104108;28;20149;-68
2022/03/23 12:25:33;;;;;;;9.80;9.00;;;;;;;;;;5092791;28;20042;-68
2022/03/23 12:28:16;;;;;;;10.48;9.25;;;;;;;;;;5112009;28;20016;-68
2022/03/23 12:30:47;;;;;;;9.18;8.50;;;;;;;;;;5112187;28;20043;-69
2022/03/23 12:33:21;;;;;;;9.88;9.07;;;;;;;;;;5111256;28;20019;-68
2022/03/23 12:35:47;;;;;;;10.18;9.35;;;;;;;;;;5110654;28;20015;-68
2022/03/23 12:38:22;;;;;;;9.95;9.05;;;;;;;;;;5112651;28;20023;-67
2022/03/23 12:40:47;;;;;;;9.98;9.10;;;;;;;;;;5111369;28;20116;-69
2022/03/23 12:43:31;;;;;;;10.68;9.88;;;;;;;;;;5104963;28;20128;-68
2022/03/23 12:45:56;;;;;;;9.98;9.27;;;;;;;;;;5100431;28;20152;-69
2022/03/23 12:59:33;;;;;;;9.80;9.00;;;;;;;;;;5106730;28;20076;-69
2022/03/23 13:02:17;;;;;;;9.45;8.75;;;;;;;;;;5106584;28;20020;-68
2022/03/23 13:04:42;;;;;;;10.15;9.35;;;;;;;;;;5100357;28;20024;-69
2022/03/23 13:07:27;;;;;;;9.77;8.90;;;;;;;;;;5112604;28;20107;-68
2022/03/23 13:09:52;;;;;;;9.48;8.63;;;;;;;;;;5098437;28;20107;-68
2022/03/23 13:12:22;;;;;;;9.25;8.55;;;;;;;;;;5092794;28;20138;-69
2022/03/23 13:14:47;;;;;;;9.50;8.70;;;;;;;;;;5098260;28;20434;-67
2022/03/23 13:17:14;;;;;;;9.90;9.00;;;;;;;;;;5103760;28;20028;-68
2022/03/23 13:19:40;;;;;;;8.90;8.20;;;;;;;;;;5105438;28;20072;-69
2022/03/23 13:22:05;;;;;;;8.65;7.95;;;;;;;;;;5110851;28;20417;-69
2022/03/23 13:24:30;;;;;;;8.70;7.97;;;;;;;;;;5105086;28;20427;-69
2022/03/23 13:26:56;;;;;;;9.40;8.70;;;;;;;;;;5102971;28;20089;-69
2022/03/23 13:29:24;;;;;;;8.57;7.88;;;;;;;;;;5111680;28;20042;-69
2022/03/23 13:31:49;;;;;;;9.15;8.52;;;;;;;;;;5105320;28;20077;-68
2022/03/23 13:34:15;;;;;;;9.57;8.77;;;;;;;;;;5102814;28;20028;-69
2022/03/23 13:36:41;;;;;;;9.50;8.63;;;;;;;;;;5109276;28;20030;-70
2022/03/23 13:39:10;;;;;;;9.13;7.95;;;;;;;;;;5109513;28;20012;-70
2022/03/23 13:44:54;;;;;;;8.68;7.80;;;;;;;;;;5108711;28;20085;-72
2022/03/23 13:47:05;;;;;;;8.80;8.13;;;;;;;;;;5109630;28;20036;-71
2022/03/23 13:49:32;;;;;;;8.35;7.75;;;;;;;;;;5096851;28;20089;-71
2022/03/23 13:52:00;;;;;;;8.32;7.72;;;;;;;;;;5108546;28;20023;-70
2022/03/23 13:54:25;;;;;;;8.70;7.47;;;;;;;;;;5111701;28;20026;-66
2022/03/23 13:56:51;;;;;;;8.75;8.13;;;;;;;;;;5102057;28;20048;-69
2022/03/23 13:59:16;;;;;;;9.40;8.70;;;;;;;;;;5099911;28;20468;-65
2022/03/23 14:01:43;;;;;;;9.50;8.70;;;;;;;;;;5109318;28;20090;-70
2022/03/23 14:04:09;;;;;;;10.63;9.02;;;;;;;;;;5111403;28;20031;-67
2022/03/23 14:06:42;;;;;;;9.88;8.90;;;;;;;;;;5102968;28;20392;-69
2022/03/23 14:09:08;;;;;;;9.82;9.02;;;;;;;;;;5091195;28;20020;-70
2022/03/23 14:14:24;;;;;;;10.52;9.57;;;;;;;;;;5108969;28;20032;-70
2022/03/23 14:17:16;;;;;;;9.85;8.95;;;;;;;;;;5107421;28;20061;-69
2022/03/23 14:19:42;;;;;;;10.00;9.10;;;;;;;;;;5092818;28;20089;-70
2022/03/23 14:22:09;;;;;;;10.10;9.10;;;;;;;;;;5091036;28;20059;-70
2022/03/23 14:24:37;;;;;;;9.50;8.70;;;;;;;;;;5106691;28;20073;-67
2022/03/23 14:27:11;;;;;;;9.70;8.82;;;;;;;;;;5100647;28;20035;-69
2022/03/23 14:29:37;;;;;;;9.52;8.55;;;;;;;;;;5112842;28;20477;-70
2022/03/23 14:32:03;;;;;;;10.60;9.45;;;;;;;;;;5114984;28;20028;-70
2022/03/23 14:34:30;;;;;;;9.80;8.90;;;;;;;;;;5111665;28;20034;-73
2022/03/23 14:37:09;;;;;;;10.93;9.35;;;;;;;;;;5100815;28;20013;-70
2022/03/23 14:39:38;;;;;;;10.77;8.85;;;;;;;;;;5094409;28;20016;-67
2022/03/23 14:42:06;;;;;;;9.05;8.25;;;;;;;;;;5094432;28;20019;-68
2022/03/23 14:44:34;;;;;;;9.25;8.38;;;;;;;;;;5112237;28;20031;-70
2022/03/23 14:46:59;;;;;;;10.27;9.38;;;;;;;;;;5114583;28;20023;-67
2022/03/23 14:49:31;;;;;;;10.07;9.23;;;;;;;;;;5113152;28;20084;-68
2022/03/23 14:51:56;;;;;;;9.63;8.70;;;;;;;;;;5114905;28;20315;-74
2022/03/23 14:54:22;;;;;;;9.77;8.87;;;;;;;;;;5113616;28;20476;-67
2022/03/23 14:56:49;;;;;;;10.07;9.10;;;;;;;;;;5109168;28;20054;-65
2022/03/23 14:59:14;;;;;;;9.90;9.00;;;;;;;;;;5103699;28;20392;-65
2022/03/23 15:01:40;;;;;;;9.85;8.88;;;;;;;;;;5109214;28;20016;-66